PWSweather.com
Personal Weather Stations
Station Observations
KCTHAMDEN
Dunbar Hill, Hamden, CT 06514

Dunbar HillHamden, CT 06514

Lat: 41.365437, Lon: -72.956532

Elevation: 200

Station Type: Davis Vantage Pro2+

Latest ConditionsUpdated 7:15:01 PM EDT Tuesday, Mar 26, 2019
Currently Today's Max Today's Min Today's Average
Temperature 41.5°F5.3°C 47.9°F8.8°C 30.6°F-0.8°C 38.9°F3.8°C
Dew Point 8.2°F-13.2°C 12.7°F-10.7°C 4.5°F-15.3°C 7.7°F-13.5°C
Winds 0.6 mph WSW1.0 kmh WSW 11.7 mph -18.8 kmh - - 3.7 mph 6.0 kmh
Wind Gusts 2.0 mph3.2 kmh 19.0 mph30.6 kmh - -
Humidity 25% 36% 17% 28%
Pressure 30.29 in1025.7 mb 30.29 in1025.7 mb 30.11 in1019.6 mb -
Hour Temp Dew Point Humidity Winds Wind Gusts Pressure Precip Precip Rate Daily Precip Total
07:15 PM 41.5°F5.3°C 8.2°F-13.2°C 25% 0.6 mph WSW1.0 kmh WSW 2.0 mph3.2 kmh 30.29 in1025.7 mb - 0.00 in0.0 mm 0.00 in0.0 mm
07:00 PM 42.0°F5.6°C 7.8°F-13.4°C 24% 2.5 mph WSW4.0 kmh WSW 4.0 mph6.4 kmh 30.28 in1025.4 mb - 0.00 in0.0 mm 0.00 in0.0 mm
06:45 PM 42.4°F5.8°C 8.1°F-13.3°C 24% 3.9 mph WSW6.3 kmh WSW 6.0 mph9.7 kmh 30.27 in1025.1 mb - 0.00 in0.0 mm 0.00 in0.0 mm
06:30 PM 42.7°F5.9°C 8.4°F-13.1°C 24% 2.1 mph ESE3.4 kmh ESE 4.0 mph6.4 kmh 30.27 in1025.1 mb - 0.00 in0.0 mm 0.00 in0.0 mm
06:15 PM 43.2°F6.2°C 8.8°F-12.9°C 24% 1.4 mph NNW2.3 kmh NNW 2.0 mph3.2 kmh 30.26 in1024.7 mb - 0.00 in0.0 mm 0.00 in0.0 mm
06:00 PM 43.7°F6.5°C 8.3°F-13.2°C 23% 3.0 mph N4.8 kmh N 8.0 mph12.9 kmh 30.26 in1024.7 mb - 0.00 in0.0 mm 0.00 in0.0 mm
05:45 PM 44.7°F7.1°C 8.1°F-13.3°C 22% 1.8 mph W2.9 kmh W 9.0 mph14.5 kmh 30.26 in1024.7 mb - 0.00 in0.0 mm 0.00 in0.0 mm
05:30 PM 45.3°F7.4°C 8.6°F-13.0°C 22% 6.8 mph E10.9 kmh E 9.0 mph14.5 kmh 30.25 in1024.4 mb - 0.00 in0.0 mm 0.00 in0.0 mm
05:15 PM 45.6°F7.6°C 6.8°F-14.0°C 20% 3.4 mph N5.5 kmh N 8.0 mph12.9 kmh 30.24 in1024.0 mb - 0.00 in0.0 mm 0.00 in0.0 mm
05:00 PM 46.0°F7.8°C 8.2°F-13.2°C 21% 4.9 mph E7.9 kmh E 7.0 mph11.3 kmh 30.24 in1024.0 mb - 0.00 in0.0 mm 0.00 in0.0 mm
04:45 PM 46.4°F8.0°C 9.6°F-12.4°C 22% 0.4 mph WSW0.6 kmh WSW 2.0 mph3.2 kmh 30.24 in1024.0 mb - 0.00 in0.0 mm 0.00 in0.0 mm
04:30 PM 46.9°F8.3°C 8.9°F-12.8°C 21% 3.9 mph WSW6.3 kmh WSW 13.0 mph20.9 kmh 30.23 in1023.7 mb - 0.00 in0.0 mm 0.00 in0.0 mm
04:15 PM 47.0°F8.3°C 6.8°F-14.0°C 19% 5.4 mph N8.7 kmh N 11.0 mph17.7 kmh 30.23 in1023.7 mb - 0.00 in0.0 mm 0.00 in0.0 mm
04:00 PM 47.2°F8.4°C 4.5°F-15.3°C 17% 6.8 mph SE10.9 kmh SE 11.0 mph17.7 kmh 30.23 in1023.7 mb - 0.00 in0.0 mm 0.00 in0.0 mm
03:45 PM 47.2°F8.4°C 7.0°F-13.9°C 19% 5.1 mph SW8.2 kmh SW 13.0 mph20.9 kmh 30.23 in1023.7 mb - 0.00 in0.0 mm 0.00 in0.0 mm
03:30 PM 47.9°F8.8°C 7.6°F-13.6°C 19% 4.2 mph ENE6.8 kmh ENE 13.0 mph20.9 kmh 30.24 in1024.0 mb - 0.00 in0.0 mm 0.00 in0.0 mm
03:15 PM 47.6°F8.7°C 9.5°F-12.5°C 21% 2.9 mph NE4.7 kmh NE 10.0 mph16.1 kmh 30.24 in1024.0 mb - 0.00 in0.0 mm 0.00 in0.0 mm
03:00 PM 47.8°F8.8°C 9.7°F-12.4°C 21% 9.2 mph WSW14.8 kmh WSW 11.0 mph17.7 kmh 30.24 in1024.0 mb - 0.00 in0.0 mm 0.00 in0.0 mm
02:45 PM 47.2°F8.4°C 10.2°F-12.1°C 22% 5.0 mph NW8.0 kmh NW 14.0 mph22.5 kmh 30.25 in1024.4 mb - 0.00 in0.0 mm 0.00 in0.0 mm
02:30 PM 46.9°F8.3°C 10.9°F-11.7°C 23% 6.2 mph WSW10.0 kmh WSW 13.0 mph20.9 kmh 30.25 in1024.4 mb - 0.00 in0.0 mm 0.00 in0.0 mm
02:15 PM 46.5°F8.1°C 8.6°F-13.0°C 21% 7.9 mph N12.7 kmh N 12.0 mph19.3 kmh 30.25 in1024.4 mb - 0.00 in0.0 mm 0.00 in0.0 mm
02:00 PM 46.2°F7.9°C 9.4°F-12.6°C 22% 6.6 mph SE10.6 kmh SE 14.0 mph22.5 kmh 30.26 in1024.7 mb - 0.00 in0.0 mm 0.00 in0.0 mm
01:45 PM 47.0°F8.3°C 6.8°F-14.0°C 19% 5.8 mph W9.3 kmh W 6.0 mph9.7 kmh 30.26 in1024.7 mb - 0.00 in0.0 mm 0.00 in0.0 mm
01:30 PM 46.1°F7.8°C 9.3°F-12.6°C 22% 2.3 mph SE3.7 kmh SE 7.0 mph11.3 kmh 30.26 in1024.7 mb - 0.00 in0.0 mm 0.00 in0.0 mm
01:15 PM 45.6°F7.6°C 12.7°F-10.7°C 26% 0.9 mph ESE1.4 kmh ESE 10.0 mph16.1 kmh 30.27 in1025.1 mb - 0.00 in0.0 mm 0.00 in0.0 mm
01:00 PM 45.0°F7.2°C 9.4°F-12.6°C 23% 2.9 mph E4.7 kmh E 7.0 mph11.3 kmh 30.27 in1025.1 mb - 0.00 in0.0 mm 0.00 in0.0 mm
12:45 PM 44.9°F7.2°C 9.2°F-12.7°C 23% 5.9 mph ESE9.5 kmh ESE 10.0 mph16.1 kmh 30.27 in1025.1 mb - 0.00 in0.0 mm 0.00 in0.0 mm
12:30 PM 43.8°F6.6°C 8.3°F-13.2°C 23% 4.6 mph E7.4 kmh E 10.0 mph16.1 kmh 30.27 in1025.1 mb - 0.00 in0.0 mm 0.00 in0.0 mm
12:15 PM 44.2°F6.8°C 7.7°F-13.5°C 22% 4.1 mph E6.6 kmh E 8.0 mph12.9 kmh 30.28 in1025.4 mb - 0.00 in0.0 mm 0.00 in0.0 mm
12:00 PM 42.9°F6.1°C 9.4°F-12.6°C 25% 5.9 mph SSE9.5 kmh SSE 12.0 mph19.3 kmh 30.28 in1025.4 mb - 0.00 in0.0 mm 0.00 in0.0 mm
11:45 AM 42.2°F5.7°C 9.7°F-12.4°C 26% 4.2 mph WSW6.8 kmh WSW 11.0 mph17.7 kmh 30.28 in1025.4 mb - 0.00 in0.0 mm 0.00 in0.0 mm
11:30 AM 41.9°F5.5°C 8.6°F-13.0°C 25% 4.8 mph WSW7.7 kmh WSW 10.0 mph16.1 kmh 30.29 in1025.7 mb - 0.00 in0.0 mm 0.00 in0.0 mm
11:15 AM 40.8°F4.9°C 7.6°F-13.6°C 25% 3.8 mph SW6.1 kmh SW 4.0 mph6.4 kmh 30.29 in1025.7 mb - 0.00 in0.0 mm 0.00 in0.0 mm
11:00 AM 41.8°F5.4°C 9.4°F-12.6°C 26% 11.7 mph E18.8 kmh E 19.0 mph30.6 kmh 30.29 in1025.7 mb - 0.00 in0.0 mm 0.00 in0.0 mm
10:45 AM 41.6°F5.3°C 9.2°F-12.7°C 26% 5.7 mph WSW9.2 kmh WSW 13.0 mph20.9 kmh 30.28 in1025.4 mb - 0.00 in0.0 mm 0.00 in0.0 mm
10:30 AM 41.4°F5.2°C 10.7°F-11.8°C 28% 4.5 mph WSW7.2 kmh WSW 4.0 mph6.4 kmh 30.27 in1025.1 mb - 0.00 in0.0 mm 0.00 in0.0 mm
10:15 AM 39.6°F4.2°C 8.3°F-13.2°C 27% 5.6 mph SE9.0 kmh SE 8.0 mph12.9 kmh 30.27 in1025.1 mb - 0.00 in0.0 mm 0.00 in0.0 mm
10:00 AM 39.5°F4.2°C 8.2°F-13.2°C 27% 9.8 mph N15.8 kmh N 16.0 mph25.7 kmh 30.27 in1025.1 mb - 0.00 in0.0 mm 0.00 in0.0 mm
09:45 AM 38.4°F3.6°C 8.9°F-12.8°C 29% 6.4 mph E10.3 kmh E 8.0 mph12.9 kmh 30.26 in1024.7 mb - 0.00 in0.0 mm 0.00 in0.0 mm
09:30 AM 37.8°F3.2°C 9.0°F-12.8°C 30% 6.1 mph ESE9.8 kmh ESE 9.0 mph14.5 kmh 30.26 in1024.7 mb - 0.00 in0.0 mm 0.00 in0.0 mm
09:15 AM 36.9°F2.7°C 8.3°F-13.2°C 30% 5.5 mph WSW8.9 kmh WSW 13.0 mph20.9 kmh 30.25 in1024.4 mb - 0.00 in0.0 mm 0.00 in0.0 mm
09:00 AM 36.4°F2.4°C 9.3°F-12.6°C 32% 9.4 mph ESE15.1 kmh ESE 12.0 mph19.3 kmh 30.25 in1024.4 mb - 0.00 in0.0 mm 0.00 in0.0 mm
08:45 AM 35.7°F2.1°C 8.6°F-13.0°C 32% 5.8 mph NW9.3 kmh NW 11.0 mph17.7 kmh 30.25 in1024.4 mb - 0.00 in0.0 mm 0.00 in0.0 mm
08:30 AM 34.8°F1.6°C 7.9°F-13.4°C 32% 4.9 mph WSW7.9 kmh WSW 13.0 mph20.9 kmh 30.24 in1024.0 mb - 0.00 in0.0 mm 0.00 in0.0 mm
08:15 AM 33.8°F1.0°C 7.0°F-13.9°C 32% 7.0 mph E11.3 kmh E 8.0 mph12.9 kmh 30.24 in1024.0 mb - 0.00 in0.0 mm 0.00 in0.0 mm
08:00 AM 32.8°F0.4°C 7.4°F-13.7°C 34% 2.0 mph E3.2 kmh E 3.0 mph4.8 kmh 30.23 in1023.7 mb - 0.00 in0.0 mm 0.00 in0.0 mm
07:45 AM 31.6°F-0.2°C 7.1°F-13.8°C 35% Calm Calm -- 30.23 in1023.7 mb - 0.00 in0.0 mm 0.00 in0.0 mm
07:30 AM 30.8°F-0.7°C 6.3°F-14.3°C 35% 4.1 mph N6.6 kmh N 3.0 mph4.8 kmh 30.23 in1023.7 mb - 0.00 in0.0 mm 0.00 in0.0 mm
07:15 AM 30.6°F-0.8°C 6.8°F-14.0°C 36% 5.1 mph E8.2 kmh E 9.0 mph14.5 kmh 30.22 in1023.4 mb - 0.00 in0.0 mm 0.00 in0.0 mm
07:00 AM 30.8°F-0.7°C 7.0°F-13.9°C 36% 0.3 mph ENE0.5 kmh ENE 3.0 mph4.8 kmh 30.21 in1023.0 mb - 0.00 in0.0 mm 0.00 in0.0 mm
06:45 AM 31.1°F-0.5°C 6.6°F-14.1°C 35% 0.7 mph N1.1 kmh N 1.0 mph1.6 kmh 30.20 in1022.7 mb - 0.00 in0.0 mm 0.00 in0.0 mm
06:30 AM 31.4°F-0.3°C 6.2°F-14.3°C 34% 4.7 mph N7.6 kmh N 10.0 mph16.1 kmh 30.20 in1022.7 mb - 0.00 in0.0 mm 0.00 in0.0 mm
06:15 AM 31.8°F-0.1°C 5.9°F-14.5°C 33% 2.3 mph N3.7 kmh N 8.0 mph12.9 kmh 30.19 in1022.4 mb - 0.00 in0.0 mm 0.00 in0.0 mm
06:00 AM 31.9°F-0.1°C 5.3°F-14.8°C 32% 0.8 mph E1.3 kmh E 1.0 mph1.6 kmh 30.18 in1022.0 mb - 0.00 in0.0 mm 0.00 in0.0 mm
05:45 AM 32.1°F0.1°C 5.5°F-14.7°C 32% 2.5 mph ENE4.0 kmh ENE 10.0 mph16.1 kmh 30.17 in1021.7 mb - 0.00 in0.0 mm 0.00 in0.0 mm
05:30 AM 32.3°F0.2°C 5.7°F-14.6°C 32% 1.4 mph E2.3 kmh E 2.0 mph3.2 kmh 30.17 in1021.7 mb - 0.00 in0.0 mm 0.00 in0.0 mm
05:15 AM 32.3°F0.2°C 5.7°F-14.6°C 32% 4.2 mph N6.8 kmh N 10.0 mph16.1 kmh 30.16 in1021.3 mb - 0.00 in0.0 mm 0.00 in0.0 mm
05:00 AM 32.2°F0.1°C 6.3°F-14.3°C 33% 5.8 mph W9.3 kmh W 14.0 mph22.5 kmh 30.15 in1021.0 mb - 0.00 in0.0 mm 0.00 in0.0 mm
04:45 AM 32.3°F0.2°C 5.7°F-14.6°C 32% 0.3 mph ENE0.5 kmh ENE 2.0 mph3.2 kmh 30.15 in1021.0 mb - 0.00 in0.0 mm 0.00 in0.0 mm
04:30 AM 32.0°F0.0°C 5.4°F-14.8°C 32% 3.2 mph ESE5.1 kmh ESE 14.0 mph22.5 kmh 30.15 in1021.0 mb - 0.00 in0.0 mm 0.00 in0.0 mm
04:15 AM 32.2°F0.1°C 5.6°F-14.7°C 32% 2.0 mph N3.2 kmh N 5.0 mph8.0 kmh 30.14 in1020.7 mb - 0.00 in0.0 mm 0.00 in0.0 mm
04:00 AM 32.3°F0.2°C 6.4°F-14.2°C 33% 3.1 mph ENE5.0 kmh ENE 8.0 mph12.9 kmh 30.13 in1020.3 mb - 0.00 in0.0 mm 0.00 in0.0 mm
03:45 AM 32.5°F0.3°C 5.9°F-14.5°C 32% 0.9 mph W1.4 kmh W 2.0 mph3.2 kmh 30.13 in1020.3 mb - 0.00 in0.0 mm 0.00 in0.0 mm
03:30 AM 32.8°F0.4°C 6.1°F-14.4°C 32% 7.9 mph WSW12.7 kmh WSW 14.0 mph22.5 kmh 30.14 in1020.7 mb - 0.00 in0.0 mm 0.00 in0.0 mm
03:15 AM 32.9°F0.5°C 5.5°F-14.7°C 31% 3.8 mph W6.1 kmh W 7.0 mph11.3 kmh 30.14 in1020.7 mb - 0.00 in0.0 mm 0.00 in0.0 mm
03:00 AM 33.1°F0.6°C 5.7°F-14.6°C 31% 3.0 mph NW4.8 kmh NW 9.0 mph14.5 kmh 30.14 in1020.7 mb - 0.00 in0.0 mm 0.00 in0.0 mm
02:45 AM 33.5°F0.8°C 5.3°F-14.8°C 30% Calm Calm 1.0 mph1.6 kmh 30.14 in1020.7 mb - 0.00 in0.0 mm 0.00 in0.0 mm
02:30 AM 33.5°F0.8°C 5.3°F-14.8°C 30% 5.8 mph WSW9.3 kmh WSW 10.0 mph16.1 kmh 30.14 in1020.7 mb - 0.00 in0.0 mm 0.00 in0.0 mm
02:15 AM 33.6°F0.9°C 6.1°F-14.4°C 31% 2.5 mph NW4.0 kmh NW 4.0 mph6.4 kmh 30.14 in1020.7 mb - 0.00 in0.0 mm 0.00 in0.0 mm
02:00 AM 33.6°F0.9°C 6.8°F-14.0°C 32% 0.7 mph N1.1 kmh N 2.0 mph3.2 kmh 30.14 in1020.7 mb - 0.00 in0.0 mm 0.00 in0.0 mm
01:45 AM 33.6°F0.9°C 7.5°F-13.6°C 33% 1.9 mph NE3.1 kmh NE 6.0 mph9.7 kmh 30.14 in1020.7 mb - 0.00 in0.0 mm 0.00 in0.0 mm
01:30 AM 33.7°F0.9°C 7.6°F-13.6°C 33% Calm Calm 2.0 mph3.2 kmh 30.14 in1020.7 mb - 0.00 in0.0 mm 0.00 in0.0 mm
01:15 AM 34.1°F1.2°C 7.3°F-13.7°C 32% Calm Calm -- 30.13 in1020.3 mb - 0.00 in0.0 mm 0.00 in0.0 mm
01:00 AM 34.8°F1.6°C 7.2°F-13.8°C 31% Calm Calm -- 30.13 in1020.3 mb - 0.00 in0.0 mm 0.00 in0.0 mm
12:45 AM 35.6°F2.0°C 7.2°F-13.8°C 30% Calm Calm -- 30.13 in1020.3 mb - 0.00 in0.0 mm 0.00 in0.0 mm
12:30 AM 36.2°F2.3°C 7.7°F-13.5°C 30% Calm Calm 1.0 mph1.6 kmh 30.12 in1020.0 mb - 0.00 in0.0 mm 0.00 in0.0 mm
12:15 AM 36.8°F2.7°C 7.5°F-13.6°C 29% 0.5 mph WNW0.8 kmh WNW 8.0 mph12.9 kmh 30.11 in1019.6 mb - 0.00 in0.0 mm 0.00 in0.0 mm
12:00 AM 37.4°F3.0°C 7.2°F-13.8°C 28% 0.7 mph E1.1 kmh E 1.0 mph1.6 kmh 30.11 in1019.6 mb - 0.00 in0.0 mm 0.00 in0.0 mm